sensor_id;sensor_type;location;lat;lon;timestamp;P1;durP1;ratioP1;P2;durP2;ratioP2
24743;SDS011;12844;52.110;5.548;2023-04-25T00:02:11;3.45;;;0.93;;
24743;SDS011;12844;52.110;5.548;2023-04-25T00:04:37;2.38;;;1.20;;
24743;SDS011;12844;52.110;5.548;2023-04-25T00:07:03;2.53;;;1.08;;
24743;SDS011;12844;52.110;5.548;2023-04-25T00:09:28;2.78;;;1.10;;
24743;SDS011;12844;52.110;5.548;2023-04-25T00:11:54;1.50;;;0.90;;
24743;SDS011;12844;52.110;5.548;2023-04-25T00:14:20;3.28;;;1.10;;
24743;SDS011;12844;52.110;5.548;2023-04-25T00:16:45;2.58;;;0.88;;
24743;SDS011;12844;52.110;5.548;2023-04-25T00:19:11;2.35;;;0.80;;
24743;SDS011;12844;52.110;5.548;2023-04-25T00:21:37;2.90;;;1.00;;
24743;SDS011;12844;52.110;5.548;2023-04-25T00:24:05;3.80;;;1.08;;
24743;SDS011;12844;52.110;5.548;2023-04-25T00:26:31;2.78;;;1.00;;
24743;SDS011;12844;52.110;5.548;2023-04-25T00:28:58;2.35;;;1.00;;
24743;SDS011;12844;52.110;5.548;2023-04-25T00:31:23;2.17;;;0.98;;
24743;SDS011;12844;52.110;5.548;2023-04-25T00:33:49;3.80;;;1.30;;
24743;SDS011;12844;52.110;5.548;2023-04-25T00:36:15;2.22;;;0.85;;
24743;SDS011;12844;52.110;5.548;2023-04-25T00:38:40;2.35;;;0.90;;
24743;SDS011;12844;52.110;5.548;2023-04-25T00:41:07;1.70;;;0.75;;
24743;SDS011;12844;52.110;5.548;2023-04-25T00:43:32;1.98;;;0.95;;
24743;SDS011;12844;52.110;5.548;2023-04-25T00:45:59;2.75;;;0.85;;
24743;SDS011;12844;52.110;5.548;2023-04-25T00:48:25;1.52;;;0.88;;
24743;SDS011;12844;52.110;5.548;2023-04-25T00:50:55;3.55;;;1.10;;
24743;SDS011;12844;52.110;5.548;2023-04-25T00:53:23;2.30;;;1.00;;
24743;SDS011;12844;52.110;5.548;2023-04-25T00:55:54;2.78;;;1.00;;
24743;SDS011;12844;52.110;5.548;2023-04-25T00:58:21;1.67;;;0.70;;
24743;SDS011;12844;52.110;5.548;2023-04-25T01:00:47;2.88;;;1.10;;
24743;SDS011;12844;52.110;5.548;2023-04-25T01:03:15;1.65;;;0.93;;
24743;SDS011;12844;52.110;5.548;2023-04-25T01:05:42;2.58;;;1.00;;
24743;SDS011;12844;52.110;5.548;2023-04-25T01:08:08;2.90;;;0.93;;
24743;SDS011;12844;52.110;5.548;2023-04-25T01:10:33;2.25;;;1.02;;
24743;SDS011;12844;52.110;5.548;2023-04-25T01:12:59;2.13;;;0.90;;
24743;SDS011;12844;52.110;5.548;2023-04-25T01:15:25;2.25;;;0.95;;
24743;SDS011;12844;52.110;5.548;2023-04-25T01:17:50;2.63;;;1.10;;
24743;SDS011;12844;52.110;5.548;2023-04-25T01:20:16;2.92;;;0.98;;
24743;SDS011;12844;52.110;5.548;2023-04-25T01:22:42;4.30;;;1.15;;
24743;SDS011;12844;52.110;5.548;2023-04-25T01:25:08;2.88;;;1.00;;
24743;SDS011;12844;52.110;5.548;2023-04-25T01:27:35;3.10;;;1.00;;
24743;SDS011;12844;52.110;5.548;2023-04-25T01:30:01;3.00;;;1.02;;
24743;SDS011;12844;52.110;5.548;2023-04-25T01:32:28;2.90;;;1.08;;
24743;SDS011;12844;52.110;5.548;2023-04-25T01:34:54;2.85;;;1.27;;
24743;SDS011;12844;52.110;5.548;2023-04-25T01:37:19;2.03;;;0.90;;
24743;SDS011;12844;52.110;5.548;2023-04-25T01:39:45;1.90;;;1.00;;
24743;SDS011;12844;52.110;5.548;2023-04-25T01:42:12;5.25;;;1.05;;
24743;SDS011;12844;52.110;5.548;2023-04-25T01:44:38;2.28;;;0.98;;
24743;SDS011;12844;52.110;5.548;2023-04-25T01:47:04;2.75;;;1.20;;
24743;SDS011;12844;52.110;5.548;2023-04-25T06:01:26;1.63;;;0.90;;
24743;SDS011;12844;52.110;5.548;2023-04-25T06:03:52;1.67;;;0.80;;
24743;SDS011;12844;52.110;5.548;2023-04-25T06:06:17;1.13;;;0.73;;
24743;SDS011;12844;52.110;5.548;2023-04-25T06:08:43;1.30;;;0.73;;
24743;SDS011;12844;52.110;5.548;2023-04-25T06:13:35;2.47;;;1.25;;
24743;SDS011;12844;52.110;5.548;2023-04-25T06:16:00;1.33;;;0.80;;
24743;SDS011;12844;52.110;5.548;2023-04-25T06:18:26;1.17;;;0.75;;
24743;SDS011;12844;52.110;5.548;2023-04-25T06:20:51;2.47;;;1.02;;
24743;SDS011;12844;52.110;5.548;2023-04-25T06:23:17;1.55;;;0.80;;
24743;SDS011;12844;52.110;5.548;2023-04-25T06:25:42;1.15;;;0.60;;
24743;SDS011;12844;52.110;5.548;2023-04-25T06:28:08;1.98;;;1.00;;
24743;SDS011;12844;52.110;5.548;2023-04-25T06:30:33;1.23;;;0.80;;
24743;SDS011;12844;52.110;5.548;2023-04-25T06:32:59;1.83;;;0.90;;
24743;SDS011;12844;52.110;5.548;2023-04-25T06:35:24;1.30;;;0.90;;
24743;SDS011;12844;52.110;5.548;2023-04-25T06:37:50;1.40;;;0.70;;
24743;SDS011;12844;52.110;5.548;2023-04-25T06:40:15;1.45;;;0.90;;
24743;SDS011;12844;52.110;5.548;2023-04-25T06:42:42;1.20;;;0.90;;
24743;SDS011;12844;52.110;5.548;2023-04-25T06:45:08;1.38;;;0.73;;
24743;SDS011;12844;52.110;5.548;2023-04-25T06:47:34;2.17;;;0.80;;
24743;SDS011;12844;52.110;5.548;2023-04-25T06:49:59;1.85;;;0.93;;
24743;SDS011;12844;52.110;5.548;2023-04-25T06:52:25;1.85;;;1.00;;
24743;SDS011;12844;52.110;5.548;2023-04-25T06:54:50;2.42;;;0.90;;
24743;SDS011;12844;52.110;5.548;2023-04-25T06:57:16;1.20;;;0.68;;
24743;SDS011;12844;52.110;5.548;2023-04-25T06:59:41;1.67;;;0.88;;
24743;SDS011;12844;52.110;5.548;2023-04-25T07:02:07;1.50;;;0.70;;
24743;SDS011;12844;52.110;5.548;2023-04-25T07:04:32;2.13;;;0.60;;
24743;SDS011;12844;52.110;5.548;2023-04-25T07:06:58;1.25;;;0.63;;
24743;SDS011;12844;52.110;5.548;2023-04-25T07:09:25;2.63;;;0.68;;
24743;SDS011;12844;52.110;5.548;2023-04-25T07:11:51;1.25;;;0.60;;
24743;SDS011;12844;52.110;5.548;2023-04-25T07:14:16;1.30;;;0.60;;
24743;SDS011;12844;52.110;5.548;2023-04-25T07:16:42;1.38;;;0.65;;
24743;SDS011;12844;52.110;5.548;2023-04-25T07:19:08;1.88;;;0.70;;
24743;SDS011;12844;52.110;5.548;2023-04-25T07:21:33;1.88;;;0.50;;
24743;SDS011;12844;52.110;5.548;2023-04-25T07:23:59;8.13;;;0.85;;
24743;SDS011;12844;52.110;5.548;2023-04-25T07:26:24;1.73;;;0.60;;
24743;SDS011;12844;52.110;5.548;2023-04-25T07:28:50;5.43;;;0.93;;
24743;SDS011;12844;52.110;5.548;2023-04-25T07:31:16;3.50;;;1.02;;
24743;SDS011;12844;52.110;5.548;2023-04-25T07:33:43;4.82;;;1.00;;
24743;SDS011;12844;52.110;5.548;2023-04-25T07:36:10;1.92;;;0.80;;
24743;SDS011;12844;52.110;5.548;2023-04-25T07:38:36;2.05;;;0.77;;
24743;SDS011;12844;52.110;5.548;2023-04-25T07:41:01;4.07;;;0.90;;
24743;SDS011;12844;52.110;5.548;2023-04-25T07:43:27;1.65;;;0.73;;
24743;SDS011;12844;52.110;5.548;2023-04-25T07:45:52;4.38;;;1.00;;
24743;SDS011;12844;52.110;5.548;2023-04-25T07:48:18;4.78;;;0.80;;
24743;SDS011;12844;52.110;5.548;2023-04-25T07:50:44;2.42;;;0.85;;
24743;SDS011;12844;52.110;5.548;2023-04-25T07:53:10;3.85;;;1.05;;
24743;SDS011;12844;52.110;5.548;2023-04-25T07:55:35;3.75;;;0.90;;
24743;SDS011;12844;52.110;5.548;2023-04-25T07:58:04;4.57;;;1.00;;
24743;SDS011;12844;52.110;5.548;2023-04-25T08:00:33;4.03;;;0.90;;
24743;SDS011;12844;52.110;5.548;2023-04-25T08:02:58;3.38;;;1.23;;
24743;SDS011;12844;52.110;5.548;2023-04-25T08:05:24;6.72;;;1.00;;
24743;SDS011;12844;52.110;5.548;2023-04-25T08:07:49;4.43;;;0.80;;
24743;SDS011;12844;52.110;5.548;2023-04-25T08:10:15;2.67;;;0.88;;
24743;SDS011;12844;52.110;5.548;2023-04-25T08:12:41;3.40;;;0.95;;
24743;SDS011;12844;52.110;5.548;2023-04-25T08:15:06;4.63;;;0.77;;
24743;SDS011;12844;52.110;5.548;2023-04-25T08:17:33;5.70;;;0.75;;
24743;SDS011;12844;52.110;5.548;2023-04-25T08:19:58;3.45;;;1.00;;
24743;SDS011;12844;52.110;5.548;2023-04-25T08:22:24;4.55;;;0.80;;
24743;SDS011;12844;52.110;5.548;2023-04-25T08:24:49;4.07;;;0.70;;
24743;SDS011;12844;52.110;5.548;2023-04-25T08:27:15;3.10;;;0.75;;
24743;SDS011;12844;52.110;5.548;2023-04-25T08:29:41;2.35;;;1.15;;
24743;SDS011;12844;52.110;5.548;2023-04-25T08:32:07;3.13;;;0.70;;
24743;SDS011;12844;52.110;5.548;2023-04-25T08:34:32;3.13;;;0.90;;
24743;SDS011;12844;52.110;5.548;2023-04-25T08:36:58;2.88;;;0.90;;
24743;SDS011;12844;52.110;5.548;2023-04-25T08:39:23;4.32;;;0.90;;
24743;SDS011;12844;52.110;5.548;2023-04-25T08:41:49;2.88;;;0.80;;
24743;SDS011;12844;52.110;5.548;2023-04-25T08:44:15;3.92;;;1.00;;
24743;SDS011;12844;52.110;5.548;2023-04-25T08:46:41;4.43;;;0.80;;
24743;SDS011;12844;52.110;5.548;2023-04-25T08:49:08;4.47;;;0.90;;
24743;SDS011;12844;52.110;5.548;2023-04-25T08:51:34;4.95;;;1.00;;
24743;SDS011;12844;52.110;5.548;2023-04-25T08:54:09;4.63;;;0.97;;
24743;SDS011;12844;52.110;5.548;2023-04-25T08:56:37;6.07;;;1.05;;
24743;SDS011;12844;52.110;5.548;2023-04-25T08:59:05;4.43;;;0.80;;
24743;SDS011;12844;52.110;5.548;2023-04-25T09:01:33;5.60;;;1.00;;
24743;SDS011;12844;52.110;5.548;2023-04-25T09:04:00;3.13;;;1.38;;
24743;SDS011;12844;52.110;5.548;2023-04-25T09:06:25;4.20;;;0.90;;
24743;SDS011;12844;52.110;5.548;2023-04-25T09:08:52;2.55;;;0.85;;
24743;SDS011;12844;52.110;5.548;2023-04-25T09:11:18;6.40;;;1.25;;
24743;SDS011;12844;52.110;5.548;2023-04-25T09:13:44;3.08;;;0.70;;
24743;SDS011;12844;52.110;5.548;2023-04-25T09:16:10;4.10;;;0.90;;
24743;SDS011;12844;52.110;5.548;2023-04-25T09:18:36;1.63;;;0.60;;
24743;SDS011;12844;52.110;5.548;2023-04-25T09:21:06;4.97;;;1.05;;
24743;SDS011;12844;52.110;5.548;2023-04-25T09:24:07;5.63;;;1.00;;
24743;SDS011;12844;52.110;5.548;2023-04-25T09:26:25;2.88;;;0.90;;
24743;SDS011;12844;52.110;5.548;2023-04-25T09:29:03;5.93;;;1.05;;
24743;SDS011;12844;52.110;5.548;2023-04-25T09:31:31;4.10;;;0.90;;
24743;SDS011;12844;52.110;5.548;2023-04-25T09:33:59;7.07;;;1.38;;
24743;SDS011;12844;52.110;5.548;2023-04-25T09:36:26;8.10;;;1.33;;
24743;SDS011;12844;52.110;5.548;2023-04-25T09:38:52;4.75;;;1.13;;
24743;SDS011;12844;52.110;5.548;2023-04-25T09:41:22;4.25;;;1.20;;
24743;SDS011;12844;52.110;5.548;2023-04-25T09:43:48;4.43;;;1.40;;
24743;SDS011;12844;52.110;5.548;2023-04-25T09:46:15;5.57;;;1.80;;
24743;SDS011;12844;52.110;5.548;2023-04-25T09:48:47;7.45;;;1.23;;
24743;SDS011;12844;52.110;5.548;2023-04-25T09:51:15;6.07;;;1.52;;
24743;SDS011;12844;52.110;5.548;2023-04-25T09:53:41;6.25;;;1.58;;
24743;SDS011;12844;52.110;5.548;2023-04-25T09:56:09;6.53;;;1.60;;
24743;SDS011;12844;52.110;5.548;2023-04-25T09:58:37;5.00;;;1.48;;
24743;SDS011;12844;52.110;5.548;2023-04-25T10:01:04;6.13;;;1.48;;
24743;SDS011;12844;52.110;5.548;2023-04-25T10:03:33;4.78;;;1.50;;
24743;SDS011;12844;52.110;5.548;2023-04-25T10:06:00;5.15;;;1.50;;
24743;SDS011;12844;52.110;5.548;2023-04-25T10:08:30;5.70;;;1.60;;
24743;SDS011;12844;52.110;5.548;2023-04-25T10:11:01;5.28;;;1.80;;
24743;SDS011;12844;52.110;5.548;2023-04-25T10:13:32;7.20;;;1.40;;
24743;SDS011;12844;52.110;5.548;2023-04-25T10:15:58;5.53;;;1.77;;
24743;SDS011;12844;52.110;5.548;2023-04-25T10:18:29;6.93;;;1.40;;
24743;SDS011;12844;52.110;5.548;2023-04-25T10:20:56;7.75;;;1.70;;
24743;SDS011;12844;52.110;5.548;2023-04-25T10:23:23;4.53;;;1.50;;
24743;SDS011;12844;52.110;5.548;2023-04-25T10:25:50;4.15;;;1.73;;
24743;SDS011;12844;52.110;5.548;2023-04-25T10:28:16;5.47;;;1.70;;
24743;SDS011;12844;52.110;5.548;2023-04-25T10:33:42;5.80;;;1.70;;
24743;SDS011;12844;52.110;5.548;2023-04-25T10:36:11;4.47;;;1.20;;
24743;SDS011;12844;52.110;5.548;2023-04-25T10:38:39;4.80;;;1.40;;
24743;SDS011;12844;52.110;5.548;2023-04-25T10:41:06;5.40;;;1.63;;
24743;SDS011;12844;52.110;5.548;2023-04-25T10:43:45;3.13;;;1.27;;
24743;SDS011;12844;52.110;5.548;2023-04-25T10:46:19;8.45;;;1.73;;
24743;SDS011;12844;52.110;5.548;2023-04-25T10:48:45;5.03;;;1.90;;
24743;SDS011;12844;52.110;5.548;2023-04-25T10:51:20;6.50;;;1.70;;
24743;SDS011;12844;52.110;5.548;2023-04-25T10:53:46;5.30;;;1.90;;
24743;SDS011;12844;52.110;5.548;2023-04-25T10:56:31;4.80;;;1.60;;
24743;SDS011;12844;52.110;5.548;2023-04-25T11:01:38;5.70;;;1.60;;
24743;SDS011;12844;52.110;5.548;2023-04-25T11:04:03;3.83;;;1.30;;
24743;SDS011;12844;52.110;5.548;2023-04-25T11:06:33;5.82;;;1.92;;
24743;SDS011;12844;52.110;5.548;2023-04-25T11:09:19;3.63;;;1.52;;
24743;SDS011;12844;52.110;5.548;2023-04-25T11:11:58;5.05;;;1.30;;
24743;SDS011;12844;52.110;5.548;2023-04-25T11:14:25;4.25;;;1.35;;
24743;SDS011;12844;52.110;5.548;2023-04-25T11:16:55;5.32;;;1.52;;
24743;SDS011;12844;52.110;5.548;2023-04-25T11:19:22;6.15;;;1.52;;
24743;SDS011;12844;52.110;5.548;2023-04-25T11:21:49;4.05;;;1.50;;
24743;SDS011;12844;52.110;5.548;2023-04-25T11:24:16;5.35;;;1.70;;
24743;SDS011;12844;52.110;5.548;2023-04-25T11:26:42;6.25;;;1.50;;
24743;SDS011;12844;52.110;5.548;2023-04-25T11:29:08;4.30;;;1.35;;
24743;SDS011;12844;52.110;5.548;2023-04-25T11:31:34;4.47;;;1.25;;
24743;SDS011;12844;52.110;5.548;2023-04-25T11:34:00;4.13;;;1.60;;
24743;SDS011;12844;52.110;5.548;2023-04-25T11:36:25;5.50;;;1.70;;
24743;SDS011;12844;52.110;5.548;2023-04-25T11:38:52;4.93;;;1.77;;
24743;SDS011;12844;52.110;5.548;2023-04-25T11:41:18;6.18;;;1.85;;
24743;SDS011;12844;52.110;5.548;2023-04-25T11:43:45;3.97;;;1.30;;
24743;SDS011;12844;52.110;5.548;2023-04-25T11:46:10;4.78;;;1.65;;
24743;SDS011;12844;52.110;5.548;2023-04-25T11:48:39;3.72;;;1.27;;
24743;SDS011;12844;52.110;5.548;2023-04-25T11:51:06;3.58;;;1.35;;
24743;SDS011;12844;52.110;5.548;2023-04-25T11:53:32;4.30;;;1.30;;
24743;SDS011;12844;52.110;5.548;2023-04-25T11:55:58;2.30;;;1.02;;
24743;SDS011;12844;52.110;5.548;2023-04-25T11:58:25;3.17;;;1.27;;
24743;SDS011;12844;52.110;5.548;2023-04-25T12:00:51;3.97;;;1.27;;
24743;SDS011;12844;52.110;5.548;2023-04-25T12:03:17;4.00;;;1.45;;
24743;SDS011;12844;52.110;5.548;2023-04-25T12:05:44;5.22;;;1.20;;
24743;SDS011;12844;52.110;5.548;2023-04-25T12:08:10;6.13;;;1.20;;
24743;SDS011;12844;52.110;5.548;2023-04-25T12:10:40;3.80;;;1.30;;
24743;SDS011;12844;52.110;5.548;2023-04-25T12:13:24;4.93;;;1.38;;
24743;SDS011;12844;52.110;5.548;2023-04-25T12:15:51;4.88;;;1.27;;
24743;SDS011;12844;52.110;5.548;2023-04-25T12:18:19;3.65;;;1.58;;
24743;SDS011;12844;52.110;5.548;2023-04-25T12:20:46;4.75;;;1.20;;
24743;SDS011;12844;52.110;5.548;2023-04-25T17:33:24;4.00;;;1.10;;
24743;SDS011;12844;52.110;5.548;2023-04-25T17:35:51;3.50;;;0.93;;
24743;SDS011;12844;52.110;5.548;2023-04-25T17:38:17;3.50;;;1.05;;
24743;SDS011;12844;52.110;5.548;2023-04-25T17:40:42;4.45;;;1.13;;
24743;SDS011;12844;52.110;5.548;2023-04-25T17:43:08;2.00;;;0.90;;
24743;SDS011;12844;52.110;5.548;2023-04-25T17:45:33;2.42;;;0.95;;
24743;SDS011;12844;52.110;5.548;2023-04-25T17:48:00;3.67;;;1.10;;
24743;SDS011;12844;52.110;5.548;2023-04-25T17:50:27;2.13;;;0.73;;
24743;SDS011;12844;52.110;5.548;2023-04-25T17:52:53;2.13;;;1.00;;
24743;SDS011;12844;52.110;5.548;2023-04-25T17:55:18;9.43;;;1.20;;
24743;SDS011;12844;52.110;5.548;2023-04-25T17:57:44;4.30;;;1.00;;
24743;SDS011;12844;52.110;5.548;2023-04-25T18:00:09;4.45;;;1.00;;
24743;SDS011;12844;52.110;5.548;2023-04-25T18:02:36;4.63;;;0.98;;
24743;SDS011;12844;52.110;5.548;2023-04-25T18:05:03;3.08;;;0.95;;
24743;SDS011;12844;52.110;5.548;2023-04-25T18:07:33;3.00;;;1.00;;
24743;SDS011;12844;52.110;5.548;2023-04-25T18:09:59;4.82;;;1.10;;
24743;SDS011;12844;52.110;5.548;2023-04-25T18:12:25;3.85;;;1.10;;
24743;SDS011;12844;52.110;5.548;2023-04-25T18:14:51;4.05;;;1.33;;
24743;SDS011;12844;52.110;5.548;2023-04-25T18:17:16;3.97;;;1.10;;
24743;SDS011;12844;52.110;5.548;2023-04-25T18:19:42;3.13;;;1.15;;
24743;SDS011;12844;52.110;5.548;2023-04-25T18:22:07;3.97;;;1.00;;
24743;SDS011;12844;52.110;5.548;2023-04-25T18:24:33;6.00;;;1.35;;
24743;SDS011;12844;52.110;5.548;2023-04-25T18:26:58;3.50;;;1.02;;
24743;SDS011;12844;52.110;5.548;2023-04-25T18:29:26;7.18;;;1.58;;
24743;SDS011;12844;52.110;5.548;2023-04-25T18:31:52;4.82;;;1.27;;
24743;SDS011;12844;52.110;5.548;2023-04-25T18:34:18;2.78;;;1.02;;
24743;SDS011;12844;52.110;5.548;2023-04-25T18:36:44;3.40;;;1.13;;
24743;SDS011;12844;52.110;5.548;2023-04-25T18:39:10;3.05;;;0.95;;
24743;SDS011;12844;52.110;5.548;2023-04-25T18:41:36;4.50;;;1.20;;
24743;SDS011;12844;52.110;5.548;2023-04-25T18:44:02;3.50;;;1.30;;
24743;SDS011;12844;52.110;5.548;2023-04-25T18:46:32;6.72;;;2.38;;
24743;SDS011;12844;52.110;5.548;2023-04-25T18:48:58;5.70;;;1.38;;
24743;SDS011;12844;52.110;5.548;2023-04-25T18:51:25;4.45;;;1.55;;
24743;SDS011;12844;52.110;5.548;2023-04-25T18:53:59;6.03;;;1.50;;
24743;SDS011;12844;52.110;5.548;2023-04-25T18:56:25;4.47;;;1.48;;
24743;SDS011;12844;52.110;5.548;2023-04-25T18:58:52;6.03;;;1.52;;
24743;SDS011;12844;52.110;5.548;2023-04-25T19:01:18;4.55;;;1.52;;
24743;SDS011;12844;52.110;5.548;2023-04-25T19:03:45;3.70;;;1.38;;
24743;SDS011;12844;52.110;5.548;2023-04-25T19:06:19;3.38;;;1.63;;
24743;SDS011;12844;52.110;5.548;2023-04-25T19:08:47;6.13;;;1.83;;
24743;SDS011;12844;52.110;5.548;2023-04-25T19:11:14;3.83;;;1.70;;
24743;SDS011;12844;52.110;5.548;2023-04-25T19:13:40;5.22;;;1.70;;
24743;SDS011;12844;52.110;5.548;2023-04-25T19:16:05;2.90;;;1.85;;
24743;SDS011;12844;52.110;5.548;2023-04-25T19:18:31;4.18;;;1.88;;
24743;SDS011;12844;52.110;5.548;2023-04-25T19:20:57;4.38;;;1.80;;
24743;SDS011;12844;52.110;5.548;2023-04-25T19:23:23;2.70;;;1.60;;
24743;SDS011;12844;52.110;5.548;2023-04-25T19:25:50;4.65;;;1.75;;
24743;SDS011;12844;52.110;5.548;2023-04-25T19:28:16;6.30;;;1.88;;
24743;SDS011;12844;52.110;5.548;2023-04-25T19:30:41;5.32;;;1.75;;
24743;SDS011;12844;52.110;5.548;2023-04-25T19:33:07;4.40;;;1.60;;
24743;SDS011;12844;52.110;5.548;2023-04-25T19:35:32;8.20;;;1.90;;
24743;SDS011;12844;52.110;5.548;2023-04-25T19:37:58;4.03;;;1.65;;
24743;SDS011;12844;52.110;5.548;2023-04-25T19:40:24;6.25;;;1.80;;
24743;SDS011;12844;52.110;5.548;2023-04-25T19:42:50;4.65;;;1.73;;
24743;SDS011;12844;52.110;5.548;2023-04-25T19:45:15;5.93;;;1.48;;
24743;SDS011;12844;52.110;5.548;2023-04-25T19:47:41;3.53;;;1.38;;
24743;SDS011;12844;52.110;5.548;2023-04-25T19:50:07;4.38;;;1.50;;
24743;SDS011;12844;52.110;5.548;2023-04-25T19:52:34;4.90;;;1.45;;
24743;SDS011;12844;52.110;5.548;2023-04-25T19:55:00;4.72;;;1.60;;
24743;SDS011;12844;52.110;5.548;2023-04-25T19:57:27;3.83;;;1.10;;
24743;SDS011;12844;52.110;5.548;2023-04-25T19:59:57;2.97;;;1.20;;
24743;SDS011;12844;52.110;5.548;2023-04-25T20:02:26;6.32;;;1.38;;
24743;SDS011;12844;52.110;5.548;2023-04-25T20:04:52;4.28;;;1.30;;
24743;SDS011;12844;52.110;5.548;2023-04-25T20:07:18;4.32;;;1.30;;
24743;SDS011;12844;52.110;5.548;2023-04-25T20:09:45;3.95;;;1.63;;
24743;SDS011;12844;52.110;5.548;2023-04-25T20:12:11;5.03;;;1.30;;
24743;SDS011;12844;52.110;5.548;2023-04-25T20:14:37;3.72;;;1.40;;
24743;SDS011;12844;52.110;5.548;2023-04-25T20:17:02;2.25;;;1.33;;
24743;SDS011;12844;52.110;5.548;2023-04-25T20:19:28;3.28;;;1.23;;
24743;SDS011;12844;52.110;5.548;2023-04-25T20:21:54;2.45;;;1.20;;
24743;SDS011;12844;52.110;5.548;2023-04-25T20:24:21;3.30;;;1.40;;
24743;SDS011;12844;52.110;5.548;2023-04-25T20:26:46;4.07;;;1.50;;
24743;SDS011;12844;52.110;5.548;2023-04-25T20:29:12;4.38;;;1.40;;
24743;SDS011;12844;52.110;5.548;2023-04-25T20:31:37;3.17;;;1.25;;
24743;SDS011;12844;52.110;5.548;2023-04-25T20:34:03;3.60;;;1.33;;
24743;SDS011;12844;52.110;5.548;2023-04-25T20:36:28;4.47;;;1.30;;
24743;SDS011;12844;52.110;5.548;2023-04-25T20:38:55;2.53;;;1.30;;
24743;SDS011;12844;52.110;5.548;2023-04-25T20:41:21;6.78;;;1.50;;
24743;SDS011;12844;52.110;5.548;2023-04-25T20:43:46;4.68;;;1.30;;
24743;SDS011;12844;52.110;5.548;2023-04-25T20:46:13;2.33;;;1.40;;
24743;SDS011;12844;52.110;5.548;2023-04-25T20:48:40;3.10;;;1.42;;
24743;SDS011;12844;52.110;5.548;2023-04-25T20:51:06;5.25;;;1.38;;
24743;SDS011;12844;52.110;5.548;2023-04-25T20:53:31;4.25;;;1.38;;
24743;SDS011;12844;52.110;5.548;2023-04-25T20:55:57;6.85;;;1.70;;
24743;SDS011;12844;52.110;5.548;2023-04-25T20:58:23;4.60;;;1.48;;
24743;SDS011;12844;52.110;5.548;2023-04-25T21:00:50;3.47;;;1.30;;
24743;SDS011;12844;52.110;5.548;2023-04-25T21:03:15;2.45;;;1.30;;
24743;SDS011;12844;52.110;5.548;2023-04-25T21:05:41;3.92;;;1.20;;
24743;SDS011;12844;52.110;5.548;2023-04-25T21:08:06;2.58;;;1.30;;
24743;SDS011;12844;52.110;5.548;2023-04-25T21:10:32;3.42;;;1.52;;
24743;SDS011;12844;52.110;5.548;2023-04-25T21:12:58;4.20;;;1.40;;
24743;SDS011;12844;52.110;5.548;2023-04-25T21:15:23;5.25;;;1.48;;
24743;SDS011;12844;52.110;5.548;2023-04-25T21:17:49;3.38;;;1.40;;
24743;SDS011;12844;52.110;5.548;2023-04-25T21:20:16;3.28;;;1.30;;
24743;SDS011;12844;52.110;5.548;2023-04-25T21:22:43;3.13;;;1.50;;
24743;SDS011;12844;52.110;5.548;2023-04-25T21:25:15;3.88;;;1.40;;
24743;SDS011;12844;52.110;5.548;2023-04-25T21:30:20;3.20;;;1.83;;
24743;SDS011;12844;52.110;5.548;2023-04-25T21:32:47;2.78;;;1.40;;
24743;SDS011;12844;52.110;5.548;2023-04-25T21:35:17;2.88;;;1.60;;
24743;SDS011;12844;52.110;5.548;2023-04-25T21:37:44;2.78;;;1.50;;
24743;SDS011;12844;52.110;5.548;2023-04-25T21:40:10;5.10;;;1.42;;
24743;SDS011;12844;52.110;5.548;2023-04-25T21:42:37;4.22;;;1.58;;
24743;SDS011;12844;52.110;5.548;2023-04-25T21:45:04;3.67;;;1.40;;
24743;SDS011;12844;52.110;5.548;2023-04-25T21:47:34;3.28;;;1.40;;
24743;SDS011;12844;52.110;5.548;2023-04-25T21:50:00;5.30;;;1.80;;
24743;SDS011;12844;52.110;5.548;2023-04-25T21:52:26;4.32;;;1.67;;
24743;SDS011;12844;52.110;5.548;2023-04-25T21:54:52;4.07;;;1.40;;
24743;SDS011;12844;52.110;5.548;2023-04-25T21:57:18;3.42;;;1.70;;
24743;SDS011;12844;52.110;5.548;2023-04-25T21:59:45;4.97;;;2.00;;
24743;SDS011;12844;52.110;5.548;2023-04-25T22:02:11;3.83;;;1.60;;
24743;SDS011;12844;52.110;5.548;2023-04-25T22:04:37;4.63;;;1.80;;
24743;SDS011;12844;52.110;5.548;2023-04-25T22:07:03;2.30;;;1.60;;
24743;SDS011;12844;52.110;5.548;2023-04-25T22:09:29;2.47;;;1.70;;
24743;SDS011;12844;52.110;5.548;2023-04-25T22:11:55;2.33;;;1.48;;
24743;SDS011;12844;52.110;5.548;2023-04-25T22:14:20;2.17;;;1.67;;
24743;SDS011;12844;52.110;5.548;2023-04-25T22:16:46;2.08;;;1.55;;
24743;SDS011;12844;52.110;5.548;2023-04-25T22:19:14;3.45;;;1.80;;
24743;SDS011;12844;52.110;5.548;2023-04-25T22:21:40;2.25;;;1.35;;
24743;SDS011;12844;52.110;5.548;2023-04-25T22:24:06;2.60;;;1.73;;
24743;SDS011;12844;52.110;5.548;2023-04-25T22:26:32;4.20;;;1.90;;
24743;SDS011;12844;52.110;5.548;2023-04-25T22:28:58;2.55;;;1.73;;
24743;SDS011;12844;52.110;5.548;2023-04-25T22:31:24;4.40;;;1.83;;
24743;SDS011;12844;52.110;5.548;2023-04-25T22:33:49;2.75;;;1.73;;
24743;SDS011;12844;52.110;5.548;2023-04-25T22:36:15;3.13;;;1.80;;
24743;SDS011;12844;52.110;5.548;2023-04-25T22:38:42;2.65;;;1.65;;
24743;SDS011;12844;52.110;5.548;2023-04-25T22:41:08;3.40;;;1.70;;
24743;SDS011;12844;52.110;5.548;2023-04-25T22:43:35;2.70;;;1.67;;
24743;SDS011;12844;52.110;5.548;2023-04-25T22:46:02;2.65;;;1.88;;
24743;SDS011;12844;52.110;5.548;2023-04-25T22:48:28;3.38;;;1.75;;
24743;SDS011;12844;52.110;5.548;2023-04-25T22:51:00;2.67;;;1.67;;
24743;SDS011;12844;52.110;5.548;2023-04-25T22:53:27;3.47;;;2.03;;
24743;SDS011;12844;52.110;5.548;2023-04-25T22:55:54;3.38;;;1.60;;
24743;SDS011;12844;52.110;5.548;2023-04-25T22:58:21;4.50;;;1.77;;
24743;SDS011;12844;52.110;5.548;2023-04-25T23:00:46;2.30;;;1.83;;
24743;SDS011;12844;52.110;5.548;2023-04-25T23:03:12;3.70;;;1.70;;
24743;SDS011;12844;52.110;5.548;2023-04-25T23:05:38;2.72;;;1.95;;
24743;SDS011;12844;52.110;5.548;2023-04-25T23:08:03;2.22;;;2.00;;
24743;SDS011;12844;52.110;5.548;2023-04-25T23:10:29;2.42;;;1.60;;
24743;SDS011;12844;52.110;5.548;2023-04-25T23:12:54;2.45;;;1.83;;
24743;SDS011;12844;52.110;5.548;2023-04-25T23:15:24;3.53;;;1.80;;
24743;SDS011;12844;52.110;5.548;2023-04-25T23:17:51;3.75;;;1.80;;
24743;SDS011;12844;52.110;5.548;2023-04-25T23:20:17;3.45;;;1.80;;
24743;SDS011;12844;52.110;5.548;2023-04-25T23:22:42;4.00;;;1.95;;
24743;SDS011;12844;52.110;5.548;2023-04-25T23:25:08;2.55;;;1.85;;
24743;SDS011;12844;52.110;5.548;2023-04-25T23:27:34;2.15;;;1.63;;
24743;SDS011;12844;52.110;5.548;2023-04-25T23:29:59;3.33;;;1.92;;
24743;SDS011;12844;52.110;5.548;2023-04-25T23:32:25;2.05;;;1.55;;
24743;SDS011;12844;52.110;5.548;2023-04-25T23:34:51;3.00;;;1.70;;
24743;SDS011;12844;52.110;5.548;2023-04-25T23:37:16;3.03;;;1.80;;
24743;SDS011;12844;52.110;5.548;2023-04-25T23:39:48;2.42;;;1.80;;
24743;SDS011;12844;52.110;5.548;2023-04-25T23:42:16;2.50;;;1.98;;
24743;SDS011;12844;52.110;5.548;2023-04-25T23:44:42;3.63;;;2.05;;
24743;SDS011;12844;52.110;5.548;2023-04-25T23:47:09;3.40;;;2.10;;
24743;SDS011;12844;52.110;5.548;2023-04-25T23:49:37;2.45;;;1.80;;
24743;SDS011;12844;52.110;5.548;2023-04-25T23:52:03;3.45;;;1.80;;
24743;SDS011;12844;52.110;5.548;2023-04-25T23:54:29;2.88;;;2.00;;
